Time;durP1;ratioP1;P1;durP2;ratioP2;P2;SDS_P1;SDS_P2;PMS_P1;PMS_P2;Temp;Humidity;BMP_temperature;BMP_pressure;BME280_temperature;BME280_humidity;BME280_pressure;Samples;Min_cycle;Max_cycle;Signal;HPM_P1;HPM_P2
2023/03/30 00:00:37;;;;;;;5.07;1.80;;;;;;;;;;5012911;28;20026;-60
2023/03/30 00:03:03;;;;;;;3.58;1.80;;;;;;;;;;5012917;28;20034;-64
2023/03/30 00:05:29;;;;;;;3.13;1.95;;;;;;;;;;5013045;28;20105;-60
2023/03/30 00:07:55;;;;;;;3.45;1.70;;;;;;;;;;5012575;28;20564;-61
2023/03/30 00:10:21;;;;;;;5.85;2.00;;;;;;;;;;5012934;28;20046;-61
2023/03/30 00:12:51;;;;;;;3.15;1.70;;;;;;;;;;5011957;28;20042;-62
2023/03/30 00:15:19;;;;;;;3.88;2.03;;;;;;;;;;5013029;28;20382;-60
2023/03/30 00:17:45;;;;;;;4.03;1.60;;;;;;;;;;5012622;28;20030;-60
2023/03/30 00:20:11;;;;;;;3.28;1.92;;;;;;;;;;5012430;28;20096;-60
2023/03/30 00:22:38;;;;;;;4.40;2.20;;;;;;;;;;5012515;28;20448;-60
2023/03/30 00:25:05;;;;;;;3.05;1.80;;;;;;;;;;5012910;28;20048;-60
2023/03/30 00:27:31;;;;;;;3.03;1.50;;;;;;;;;;5012356;28;20129;-62
2023/03/30 00:29:57;;;;;;;3.55;1.98;;;;;;;;;;5012330;28;20018;-60
2023/03/30 00:32:23;;;;;;;3.55;1.45;;;;;;;;;;5012526;28;20041;-60
2023/03/30 00:34:49;;;;;;;3.33;1.60;;;;;;;;;;5011587;28;20549;-60
2023/03/30 00:37:15;;;;;;;3.95;2.00;;;;;;;;;;5012254;28;20421;-60
2023/03/30 00:39:42;;;;;;;4.55;2.05;;;;;;;;;;5012174;28;20026;-60
2023/03/30 00:42:13;;;;;;;3.22;1.98;;;;;;;;;;5012544;28;20469;-60
2023/03/30 00:44:57;;;;;;;4.03;1.70;;;;;;;;;;5012089;28;20478;-60
2023/03/30 00:47:23;;;;;;;3.80;1.77;;;;;;;;;;5012173;28;20105;-62
2023/03/30 00:49:50;;;;;;;2.55;1.45;;;;;;;;;;5011712;28;20033;-61
2023/03/30 00:52:18;;;;;;;5.05;1.83;;;;;;;;;;5012100;28;20445;-61
2023/03/30 00:54:45;;;;;;;4.00;1.77;;;;;;;;;;5011983;28;20014;-61
2023/03/30 00:57:11;;;;;;;3.47;1.45;;;;;;;;;;5012084;28;20070;-61
2023/03/30 00:59:37;;;;;;;4.00;1.90;;;;;;;;;;5011749;28;20040;-59
2023/03/30 01:02:03;;;;;;;3.53;2.00;;;;;;;;;;5012210;28;20026;-61
2023/03/30 01:04:29;;;;;;;3.25;1.42;;;;;;;;;;4993863;28;20088;-61
2023/03/30 01:06:56;;;;;;;2.72;1.45;;;;;;;;;;5011505;28;20021;-67
2023/03/30 01:09:23;;;;;;;4.72;2.00;;;;;;;;;;5011915;28;20038;-64
2023/03/30 01:11:49;;;;;;;2.90;1.40;;;;;;;;;;5011168;28;20025;-61
2023/03/30 01:14:16;;;;;;;3.28;1.35;;;;;;;;;;5011699;28;20029;-62
2023/03/30 01:16:47;;;;;;;4.25;1.58;;;;;;;;;;5011434;28;20101;-65
2023/03/30 01:19:19;;;;;;;2.63;1.48;;;;;;;;;;5011644;28;20022;-60
2023/03/30 01:21:48;;;;;;;4.03;1.85;;;;;;;;;;5011332;28;20345;-61
2023/03/30 01:24:37;;;;;;;3.00;1.42;;;;;;;;;;5011487;28;20038;-63
2023/03/30 01:27:03;;;;;;;3.70;1.27;;;;;;;;;;5011433;28;20034;-61
2023/03/30 01:29:59;;;;;;;3.10;1.20;;;;;;;;;;5011452;28;20044;-66
2023/03/30 01:32:42;;;;;;;3.70;1.52;;;;;;;;;;4957774;28;20615;-61
2023/03/30 01:35:08;;;;;;;3.58;1.30;;;;;;;;;;5011423;28;20516;-63
2023/03/30 01:37:53;;;;;;;3.20;1.65;;;;;;;;;;5011711;28;20030;-67
2023/03/30 01:40:28;;;;;;;3.03;1.38;;;;;;;;;;5011233;28;20022;-65
2023/03/30 01:43:27;;;;;;;4.10;1.90;;;;;;;;;;5010900;28;20049;-66
2023/03/30 01:45:57;;;;;;;3.58;1.58;;;;;;;;;;4978353;28;20056;-64
2023/03/30 01:48:32;;;;;;;3.97;1.70;;;;;;;;;;5011164;28;20564;-68
2023/03/30 01:51:10;;;;;;;2.50;1.40;;;;;;;;;;5010948;28;20108;-64
2023/03/30 01:53:42;;;;;;;3.05;1.50;;;;;;;;;;5011017;28;20401;-66
2023/03/30 01:56:31;;;;;;;3.03;1.70;;;;;;;;;;4993204;28;20461;-60
2023/03/30 01:59:02;;;;;;;3.92;1.42;;;;;;;;;;5010830;28;20120;-60
2023/03/30 02:01:29;;;;;;;4.72;1.92;;;;;;;;;;5011073;28;20030;-61
2023/03/30 02:03:57;;;;;;;3.83;1.63;;;;;;;;;;5010445;28;20403;-62
2023/03/30 02:06:26;;;;;;;3.53;1.35;;;;;;;;;;5011072;28;20050;-60
2023/03/30 02:08:53;;;;;;;2.22;1.17;;;;;;;;;;5010573;28;20060;-60
2023/03/30 02:11:19;;;;;;;4.68;1.50;;;;;;;;;;5010505;28;20382;-60
2023/03/30 02:13:46;;;;;;;3.97;1.50;;;;;;;;;;5010708;28;20038;-61
2023/03/30 02:16:16;;;;;;;3.95;1.67;;;;;;;;;;5011087;28;20037;-62
2023/03/30 02:18:42;;;;;;;3.28;1.25;;;;;;;;;;5011016;28;20049;-60
2023/03/30 02:21:08;;;;;;;2.92;1.42;;;;;;;;;;5010932;28;20030;-60
2023/03/30 02:23:37;;;;;;;3.75;1.80;;;;;;;;;;5011305;28;20064;-61
2023/03/30 02:26:03;;;;;;;3.72;1.45;;;;;;;;;;5010794;28;20038;-64
2023/03/30 02:28:29;;;;;;;2.00;1.17;;;;;;;;;;5010638;28;20077;-61
2023/03/30 02:30:56;;;;;;;3.72;1.63;;;;;;;;;;5010712;28;20061;-62
2023/03/30 02:33:29;;;;;;;3.65;1.52;;;;;;;;;;5010942;28;20022;-60
2023/03/30 02:36:01;;;;;;;3.33;1.13;;;;;;;;;;5010422;28;20057;-61
2023/03/30 02:38:46;;;;;;;4.03;1.80;;;;;;;;;;5010742;28;20441;-60
2023/03/30 02:41:18;;;;;;;2.45;1.33;;;;;;;;;;5010528;28;20038;-61
2023/03/30 02:43:53;;;;;;;3.35;1.45;;;;;;;;;;5011926;28;20038;-60
2023/03/30 02:46:19;;;;;;;4.30;1.73;;;;;;;;;;5014316;28;20072;-61
2023/03/30 02:48:45;;;;;;;3.60;1.50;;;;;;;;;;5013989;28;20042;-60
2023/03/30 02:51:23;;;;;;;2.95;1.63;;;;;;;;;;5014221;28;20040;-62
2023/03/30 02:54:16;;;;;;;3.80;1.60;;;;;;;;;;5013994;28;20032;-62
2023/03/30 02:56:41;;;;;;;6.05;1.55;;;;;;;;;;4978849;28;20039;-66
2023/03/30 02:59:12;;;;;;;3.67;1.73;;;;;;;;;;4994477;28;20027;-61
2023/03/30 03:01:44;;;;;;;4.28;1.70;;;;;;;;;;4994301;28;20030;-60
2023/03/30 03:04:11;;;;;;;3.78;1.70;;;;;;;;;;4994469;28;20502;-60
2023/03/30 03:06:38;;;;;;;3.60;1.45;;;;;;;;;;4994114;28;20110;-60
2023/03/30 03:09:04;;;;;;;5.00;1.50;;;;;;;;;;4994653;28;20404;-63
2023/03/30 03:11:30;;;;;;;2.95;1.30;;;;;;;;;;5013015;28;20026;-62
2023/03/30 03:13:56;;;;;;;3.03;1.52;;;;;;;;;;5013645;28;20540;-60
2023/03/30 03:16:22;;;;;;;3.00;1.42;;;;;;;;;;5013745;28;20022;-60
2023/03/30 03:18:48;;;;;;;3.10;1.42;;;;;;;;;;5013374;28;20428;-60
2023/03/30 03:21:14;;;;;;;2.97;1.20;;;;;;;;;;5013836;28;20037;-61
2023/03/30 03:23:41;;;;;;;4.25;1.40;;;;;;;;;;5013549;28;20538;-64
2023/03/30 03:26:07;;;;;;;4.15;1.55;;;;;;;;;;5012293;28;20033;-63
2023/03/30 03:28:34;;;;;;;2.70;1.42;;;;;;;;;;5013328;28;20501;-61
2023/03/30 03:31:01;;;;;;;2.47;1.20;;;;;;;;;;5013746;28;20054;-61
2023/03/30 03:33:27;;;;;;;6.63;1.50;;;;;;;;;;5013283;28;20100;-60
2023/03/30 03:35:53;;;;;;;2.78;1.10;;;;;;;;;;5013289;28;20529;-61
2023/03/30 03:38:23;;;;;;;1.98;1.20;;;;;;;;;;5013132;28;20119;-64
2023/03/30 03:40:54;;;;;;;3.33;1.25;;;;;;;;;;5012974;28;20030;-63
2023/03/30 03:43:20;;;;;;;3.10;1.38;;;;;;;;;;5012462;28;20100;-67
2023/03/30 03:45:47;;;;;;;2.88;1.23;;;;;;;;;;4993789;28;20026;-64
2023/03/30 03:48:14;;;;;;;2.85;1.67;;;;;;;;;;4993323;28;20039;-62
2023/03/30 03:50:40;;;;;;;2.95;1.40;;;;;;;;;;4993481;28;20022;-60
2023/03/30 03:53:06;;;;;;;2.70;1.35;;;;;;;;;;4993537;28;20445;-61
2023/03/30 03:55:36;;;;;;;3.78;1.15;;;;;;;;;;4992752;28;20101;-61
2023/03/30 03:58:02;;;;;;;2.17;1.35;;;;;;;;;;4993781;28;20038;-65
2023/03/30 04:00:29;;;;;;;2.47;1.25;;;;;;;;;;5012260;28;20034;-68
2023/03/30 04:02:55;;;;;;;2.85;1.20;;;;;;;;;;5012774;28;20033;-63
2023/03/30 04:05:22;;;;;;;2.20;1.10;;;;;;;;;;5012375;28;20018;-61
2023/03/30 04:07:48;;;;;;;2.90;1.25;;;;;;;;;;5012681;28;20042;-66
2023/03/30 04:10:14;;;;;;;3.83;1.65;;;;;;;;;;5011972;28;20429;-67
2023/03/30 04:12:40;;;;;;;4.50;1.55;;;;;;;;;;5012728;28;20036;-61
2023/03/30 04:15:07;;;;;;;2.83;1.30;;;;;;;;;;4995491;28;20117;-61
2023/03/30 04:17:34;;;;;;;3.33;1.33;;;;;;;;;;5012754;28;20026;-62
2023/03/30 04:20:01;;;;;;;2.05;0.82;;;;;;;;;;5012632;28;20040;-63
2023/03/30 04:22:31;;;;;;;4.72;1.10;;;;;;;;;;5012342;28;20552;-61
2023/03/30 04:24:58;;;;;;;3.28;1.30;;;;;;;;;;5012087;28;20045;-61
2023/03/30 04:27:24;;;;;;;3.92;1.10;;;;;;;;;;5012268;28;20429;-61
2023/03/30 04:29:50;;;;;;;4.28;1.40;;;;;;;;;;5012337;28;20029;-61
2023/03/30 04:32:19;;;;;;;5.95;1.25;;;;;;;;;;5012206;28;20033;-65
2023/03/30 04:34:46;;;;;;;2.28;1.27;;;;;;;;;;5012174;28;20032;-65
2023/03/30 04:37:17;;;;;;;3.20;1.48;;;;;;;;;;5012021;28;20033;-62
2023/03/30 04:39:43;;;;;;;3.35;1.60;;;;;;;;;;4994214;28;20080;-66
2023/03/30 04:42:13;;;;;;;2.40;1.00;;;;;;;;;;5011950;28;20109;-66
2023/03/30 04:44:39;;;;;;;3.25;1.58;;;;;;;;;;5012030;28;20485;-61
2023/03/30 04:47:06;;;;;;;4.95;1.48;;;;;;;;;;5012250;28;20475;-61
2023/03/30 04:49:32;;;;;;;9.38;1.50;;;;;;;;;;5011767;28;20037;-61
2023/03/30 04:51:58;;;;;;;3.58;1.38;;;;;;;;;;5012019;28;20076;-62
2023/03/30 04:54:24;;;;;;;3.67;1.40;;;;;;;;;;5011438;28;20033;-61
2023/03/30 04:56:50;;;;;;;2.42;1.02;;;;;;;;;;5012086;28;20030;-64
2023/03/30 04:59:16;;;;;;;4.55;1.30;;;;;;;;;;5011725;28;20018;-67
2023/03/30 05:01:42;;;;;;;3.17;1.50;;;;;;;;;;5011437;28;20061;-63
2023/03/30 05:04:08;;;;;;;2.28;1.23;;;;;;;;;;5012110;28;20026;-61
2023/03/30 05:06:34;;;;;;;5.00;1.30;;;;;;;;;;5011749;28;20034;-60
2023/03/30 05:09:00;;;;;;;2.72;1.20;;;;;;;;;;5011676;28;20120;-61
2023/03/30 05:11:26;;;;;;;4.93;1.30;;;;;;;;;;5003354;28;20069;-59
2023/03/30 05:13:53;;;;;;;3.85;1.20;;;;;;;;;;4992359;28;20027;-60
2023/03/30 05:16:20;;;;;;;3.17;1.35;;;;;;;;;;4995100;28;20104;-60
2023/03/30 05:18:46;;;;;;;5.00;1.75;;;;;;;;;;5011750;28;20077;-60
2023/03/30 05:21:12;;;;;;;4.18;1.40;;;;;;;;;;5010672;28;20034;-60
2023/03/30 05:23:38;;;;;;;4.70;1.35;;;;;;;;;;5012116;28;20108;-60
2023/03/30 05:26:05;;;;;;;5.32;1.20;;;;;;;;;;5011067;28;20032;-61
2023/03/30 05:28:31;;;;;;;6.00;1.70;;;;;;;;;;5011081;28;20041;-61
2023/03/30 05:30:58;;;;;;;5.00;1.20;;;;;;;;;;5011684;28;20044;-67
2023/03/30 05:33:24;;;;;;;3.53;1.20;;;;;;;;;;5010527;28;20026;-62
2023/03/30 05:35:50;;;;;;;3.78;1.30;;;;;;;;;;5011207;28;20037;-61
2023/03/30 05:38:16;;;;;;;7.43;1.35;;;;;;;;;;5011368;28;20018;-60
2023/03/30 05:40:43;;;;;;;3.58;1.30;;;;;;;;;;5011271;28;20060;-63
2023/03/30 05:43:09;;;;;;;3.53;1.40;;;;;;;;;;5010745;28;20084;-61
2023/03/30 05:45:36;;;;;;;6.13;1.58;;;;;;;;;;5011378;28;20116;-60
2023/03/30 05:48:02;;;;;;;5.38;1.33;;;;;;;;;;5011355;28;20069;-61
2023/03/30 05:50:28;;;;;;;4.03;1.20;;;;;;;;;;5005479;28;20080;-61
2023/03/30 05:52:54;;;;;;;7.85;1.58;;;;;;;;;;5010334;28;20030;-60
2023/03/30 05:55:20;;;;;;;8.00;2.10;;;;;;;;;;5011145;28;20393;-60
2023/03/30 05:57:46;;;;;;;5.22;1.80;;;;;;;;;;5011268;28;20026;-61
2023/03/30 06:00:13;;;;;;;9.77;1.77;;;;;;;;;;5011143;28;20040;-60
2023/03/30 06:02:40;;;;;;;7.22;2.05;;;;;;;;;;4992354;28;20033;-64
2023/03/30 06:05:07;;;;;;;5.88;1.70;;;;;;;;;;5011504;28;20474;-61
2023/03/30 06:07:33;;;;;;;8.43;1.33;;;;;;;;;;5011000;28;20026;-62
2023/03/30 06:10:00;;;;;;;6.10;1.95;;;;;;;;;;5019266;28;20482;-61
2023/03/30 06:12:26;;;;;;;10.23;1.83;;;;;;;;;;5010083;28;20407;-62
2023/03/30 06:14:52;;;;;;;8.70;1.65;;;;;;;;;;5010814;28;20493;-60
2023/03/30 06:17:18;;;;;;;4.35;1.70;;;;;;;;;;5010734;28;20022;-62
2023/03/30 06:19:44;;;;;;;6.68;2.22;;;;;;;;;;5014295;28;20540;-61
2023/03/30 06:22:10;;;;;;;9.52;1.80;;;;;;;;;;5015110;28;20034;-65
2023/03/30 06:24:36;;;;;;;8.82;1.55;;;;;;;;;;5015267;28;20484;-60
2023/03/30 06:27:02;;;;;;;6.60;2.22;;;;;;;;;;5014697;28;20057;-60
2023/03/30 06:29:29;;;;;;;5.75;1.65;;;;;;;;;;5014594;28;20112;-60
2023/03/30 06:31:55;;;;;;;8.02;1.80;;;;;;;;;;5014600;28;20496;-60
2023/03/30 06:34:21;;;;;;;7.93;1.85;;;;;;;;;;5014677;28;20030;-59
2023/03/30 06:36:47;;;;;;;8.00;1.88;;;;;;;;;;5014912;28;20022;-60
2023/03/30 06:39:13;;;;;;;9.07;2.20;;;;;;;;;;5014579;28;20082;-62
2023/03/30 06:41:39;;;;;;;5.95;1.52;;;;;;;;;;5014382;28;20022;-60
2023/03/30 06:44:09;;;;;;;8.60;2.20;;;;;;;;;;5016196;28;20101;-59
2023/03/30 06:46:34;;;;;;;8.02;2.35;;;;;;;;;;5034045;28;20025;-59
2023/03/30 06:49:01;;;;;;;4.90;1.90;;;;;;;;;;5034163;28;20098;-60
2023/03/30 06:51:28;;;;;;;7.70;1.45;;;;;;;;;;5034473;28;20022;-63
2023/03/30 06:53:54;;;;;;;7.38;2.28;;;;;;;;;;5034210;28;20037;-61
2023/03/30 06:56:20;;;;;;;5.97;1.80;;;;;;;;;;5033392;28;20025;-60
2023/03/30 06:58:46;;;;;;;8.30;1.75;;;;;;;;;;5033939;28;20037;-60
2023/03/30 07:01:13;;;;;;;6.03;1.92;;;;;;;;;;5022802;28;20429;-59
2023/03/30 07:03:40;;;;;;;8.80;2.33;;;;;;;;;;4994088;28;20058;-61
2023/03/30 07:06:06;;;;;;;6.88;2.00;;;;;;;;;;4992880;28;20029;-59
2023/03/30 07:08:33;;;;;;;7.13;1.67;;;;;;;;;;4993406;28;20121;-60
2023/03/30 07:10:59;;;;;;;6.15;1.90;;;;;;;;;;5025367;28;20029;-61
2023/03/30 07:13:25;;;;;;;6.00;1.67;;;;;;;;;;5032537;28;20029;-65
2023/03/30 07:15:51;;;;;;;6.53;1.90;;;;;;;;;;5021533;28;20551;-60
2023/03/30 07:18:17;;;;;;;7.15;2.22;;;;;;;;;;5013920;28;20026;-64
2023/03/30 07:20:44;;;;;;;9.32;2.13;;;;;;;;;;5013965;28;20057;-60
2023/03/30 07:23:10;;;;;;;11.20;2.72;;;;;;;;;;5031723;28;20500;-59
2023/03/30 07:25:37;;;;;;;6.97;1.70;;;;;;;;;;5024656;28;20018;-62
2023/03/30 07:28:05;;;;;;;6.35;2.15;;;;;;;;;;5013767;28;20077;-59
2023/03/30 07:30:31;;;;;;;7.35;2.25;;;;;;;;;;5012396;28;20629;-60
2023/03/30 07:32:57;;;;;;;5.55;1.83;;;;;;;;;;5013782;28;20112;-71
2023/03/30 07:35:23;;;;;;;9.10;2.10;;;;;;;;;;5028880;28;20100;-69
2023/03/30 07:37:49;;;;;;;7.97;1.95;;;;;;;;;;5025229;28;20037;-61
2023/03/30 07:40:16;;;;;;;7.53;2.08;;;;;;;;;;5022163;28;20026;-59
2023/03/30 07:42:42;;;;;;;8.48;2.50;;;;;;;;;;5019334;28;20175;-60
2023/03/30 07:45:08;;;;;;;6.65;1.77;;;;;;;;;;5018544;28;20482;-61
2023/03/30 07:47:35;;;;;;;6.88;2.05;;;;;;;;;;5021184;28;20026;-61
2023/03/30 07:50:01;;;;;;;5.80;1.88;;;;;;;;;;5013586;28;20603;-60
2023/03/30 07:52:27;;;;;;;4.57;1.52;;;;;;;;;;5013033;28;20025;-59
2023/03/30 07:54:56;;;;;;;8.70;2.20;;;;;;;;;;5013294;28;20473;-59
2023/03/30 07:57:22;;;;;;;7.97;2.03;;;;;;;;;;5010481;28;20030;-59
2023/03/30 07:59:48;;;;;;;6.72;2.30;;;;;;;;;;4997194;28;20405;-59
2023/03/30 08:02:14;;;;;;;10.70;2.05;;;;;;;;;;5013029;28;20037;-60
2023/03/30 08:04:41;;;;;;;5.82;1.70;;;;;;;;;;5013512;28;20076;-65
2023/03/30 08:07:08;;;;;;;10.82;2.92;;;;;;;;;;5012436;28;20037;-62
2023/03/30 08:09:34;;;;;;;8.75;2.30;;;;;;;;;;5012909;28;20073;-60
2023/03/30 08:12:00;;;;;;;9.88;2.45;;;;;;;;;;5013005;28;20034;-61
2023/03/30 08:14:26;;;;;;;8.05;2.05;;;;;;;;;;5012844;28;20061;-61
2023/03/30 08:16:53;;;;;;;5.63;1.67;;;;;;;;;;5013015;28;20447;-62
2023/03/30 08:19:20;;;;;;;6.68;2.10;;;;;;;;;;5012650;28;20065;-61
2023/03/30 08:21:46;;;;;;;6.53;1.80;;;;;;;;;;5012482;28;20030;-60
2023/03/30 08:24:12;;;;;;;6.85;1.85;;;;;;;;;;5012714;28;20405;-61
2023/03/30 08:26:38;;;;;;;8.02;2.00;;;;;;;;;;5005116;28;20490;-61
2023/03/30 08:29:05;;;;;;;6.35;2.00;;;;;;;;;;5008489;28;20038;-61
2023/03/30 08:31:31;;;;;;;8.35;2.00;;;;;;;;;;5012117;28;20039;-60
2023/03/30 08:33:58;;;;;;;10.68;3.05;;;;;;;;;;5012626;28;20038;-60
2023/03/30 08:36:24;;;;;;;8.90;2.88;;;;;;;;;;5012369;28;20422;-62
2023/03/30 08:38:50;;;;;;;6.97;2.30;;;;;;;;;;5012085;28;20040;-59
2023/03/30 08:41:19;;;;;;;6.90;1.85;;;;;;;;;;5012812;28;20072;-59
2023/03/30 08:43:52;;;;;;;6.93;1.90;;;;;;;;;;5016655;28;20044;-59
2023/03/30 08:46:18;;;;;;;5.88;2.10;;;;;;;;;;5012205;28;20021;-59
2023/03/30 08:48:45;;;;;;;6.82;1.98;;;;;;;;;;5012178;28;20124;-59
2023/03/30 08:51:17;;;;;;;8.65;1.83;;;;;;;;;;5012609;28;20026;-60
2023/03/30 08:53:43;;;;;;;7.30;1.88;;;;;;;;;;5004805;28;20145;-60
2023/03/30 08:56:23;;;;;;;7.13;2.08;;;;;;;;;;5004719;28;20100;-61
2023/03/30 08:59:02;;;;;;;10.60;2.42;;;;;;;;;;5012169;28;20093;-59
2023/03/30 09:01:29;;;;;;;6.03;1.83;;;;;;;;;;5012014;28;20029;-59
2023/03/30 09:03:55;;;;;;;7.22;2.05;;;;;;;;;;5010242;28;20025;-61
2023/03/30 09:06:24;;;;;;;8.25;1.80;;;;;;;;;;5011873;28;20034;-60
2023/03/30 09:08:50;;;;;;;8.00;2.10;;;;;;;;;;5012023;28;20034;-59
2023/03/30 09:11:21;;;;;;;8.55;2.13;;;;;;;;;;5011858;28;20049;-61
2023/03/30 09:13:48;;;;;;;5.90;1.90;;;;;;;;;;5012056;28;20036;-59
2023/03/30 09:16:34;;;;;;;11.25;2.50;;;;;;;;;;5011709;28;20037;-59
2023/03/30 09:19:02;;;;;;;7.50;2.05;;;;;;;;;;5011613;28;20026;-67
2023/03/30 09:21:30;;;;;;;5.68;1.83;;;;;;;;;;5011440;28;20018;-59
2023/03/30 09:23:57;;;;;;;10.32;2.13;;;;;;;;;;5007586;28;20490;-60
2023/03/30 09:26:28;;;;;;;7.68;2.10;;;;;;;;;;5010901;28;20024;-61
2023/03/30 09:29:09;;;;;;;9.63;2.45;;;;;;;;;;5011683;28;20037;-60
2023/03/30 09:31:40;;;;;;;6.30;1.63;;;;;;;;;;5011534;28;20018;-59
2023/03/30 09:34:11;;;;;;;9.20;2.60;;;;;;;;;;5012041;28;20034;-62
2023/03/30 09:36:48;;;;;;;7.97;2.45;;;;;;;;;;5011958;28;20021;-59
2023/03/30 09:39:21;;;;;;;7.88;1.63;;;;;;;;;;5011362;28;20093;-59
2023/03/30 09:42:05;;;;;;;8.68;2.33;;;;;;;;;;5011024;28;20026;-59
2023/03/30 09:44:43;;;;;;;6.00;1.90;;;;;;;;;;5013743;28;20554;-59
2023/03/30 09:47:16;;;;;;;7.10;2.05;;;;;;;;;;4992075;28;20034;-60
2023/03/30 09:49:42;;;;;;;8.70;2.03;;;;;;;;;;4991926;28;20546;-59
2023/03/30 09:52:18;;;;;;;8.77;1.98;;;;;;;;;;4992932;28;20092;-66
2023/03/30 09:54:44;;;;;;;8.45;2.60;;;;;;;;;;5010868;28;20504;-59
2023/03/30 09:57:22;;;;;;;8.48;2.40;;;;;;;;;;5011680;28;20029;-59
2023/03/30 09:59:48;;;;;;;8.88;2.45;;;;;;;;;;5011391;28;20034;-60
2023/03/30 10:02:15;;;;;;;7.88;2.47;;;;;;;;;;5011181;28;20117;-59
2023/03/30 10:04:55;;;;;;;10.00;2.88;;;;;;;;;;5011803;28;20029;-59
2023/03/30 10:07:21;;;;;;;7.38;2.28;;;;;;;;;;5010676;28;20034;-59
2023/03/30 10:09:47;;;;;;;7.18;1.98;;;;;;;;;;5011306;28;20058;-60
2023/03/30 10:12:14;;;;;;;11.00;2.47;;;;;;;;;;5011141;28;20065;-69
2023/03/30 10:14:40;;;;;;;5.38;1.60;;;;;;;;;;5011081;28;20092;-59
2023/03/30 10:17:06;;;;;;;6.88;1.90;;;;;;;;;;5010973;28;20092;-65
2023/03/30 10:19:33;;;;;;;7.05;1.63;;;;;;;;;;5010987;28;20014;-59
2023/03/30 10:22:03;;;;;;;7.38;2.22;;;;;;;;;;5010219;28;20180;-61
2023/03/30 10:24:32;;;;;;;7.65;2.92;;;;;;;;;;5009758;28;20029;-59
2023/03/30 10:27:04;;;;;;;6.90;2.33;;;;;;;;;;5009847;28;20040;-61
2023/03/30 10:29:30;;;;;;;8.23;2.22;;;;;;;;;;5010287;28;20482;-59
2023/03/30 10:32:01;;;;;;;8.15;2.28;;;;;;;;;;5007836;28;20029;-61
2023/03/30 10:34:36;;;;;;;7.78;2.13;;;;;;;;;;5010567;28;20445;-60
2023/03/30 10:37:05;;;;;;;8.40;2.20;;;;;;;;;;5008186;28;20402;-60
2023/03/30 10:39:33;;;;;;;8.90;2.65;;;;;;;;;;5008496;28;20034;-59
2023/03/30 10:42:00;;;;;;;9.85;3.00;;;;;;;;;;5004115;28;20038;-59
2023/03/30 10:44:40;;;;;;;8.93;2.53;;;;;;;;;;4991099;28;20405;-59
2023/03/30 10:47:12;;;;;;;8.90;2.45;;;;;;;;;;5006388;28;20025;-66
2023/03/30 10:49:54;;;;;;;8.77;2.28;;;;;;;;;;5011010;28;20621;-60
2023/03/30 10:52:20;;;;;;;7.93;2.47;;;;;;;;;;5010678;28;20026;-63
2023/03/30 10:54:53;;;;;;;9.27;2.47;;;;;;;;;;5022398;28;20029;-61
2023/03/30 10:57:21;;;;;;;10.27;2.58;;;;;;;;;;5030069;28;20099;-63
2023/03/30 10:59:59;;;;;;;11.10;2.78;;;;;;;;;;5011216;28;20076;-60
2023/03/30 11:02:44;;;;;;;11.25;2.85;;;;;;;;;;5011417;28;20053;-59
2023/03/30 11:05:14;;;;;;;6.93;2.03;;;;;;;;;;5001537;28;20057;-61
2023/03/30 11:07:47;;;;;;;7.90;2.13;;;;;;;;;;5016594;28;20284;-61
2023/03/30 11:10:20;;;;;;;9.07;2.50;;;;;;;;;;5022527;28;20030;-60
2023/03/30 11:12:52;;;;;;;8.57;2.20;;;;;;;;;;5033055;28;20068;-59
2023/03/30 11:15:25;;;;;;;8.63;2.35;;;;;;;;;;5015738;28;20096;-59
2023/03/30 11:18:10;;;;;;;6.88;2.50;;;;;;;;;;4993824;28;20034;-60
2023/03/30 11:20:44;;;;;;;7.80;1.75;;;;;;;;;;5001990;28;20063;-59
2023/03/30 11:23:10;;;;;;;9.20;2.80;;;;;;;;;;5015813;28;20030;-59
2023/03/30 11:25:41;;;;;;;9.68;2.25;;;;;;;;;;5013233;28;20412;-60
2023/03/30 11:28:17;;;;;;;6.95;2.20;;;;;;;;;;5014143;28;20100;-61
2023/03/30 11:30:44;;;;;;;10.15;2.97;;;;;;;;;;5013298;28;20026;-60
2023/03/30 11:33:13;;;;;;;7.75;2.50;;;;;;;;;;5012606;28;20417;-62
2023/03/30 11:35:42;;;;;;;6.72;2.05;;;;;;;;;;5009479;28;20386;-59
2023/03/30 11:38:18;;;;;;;10.20;2.17;;;;;;;;;;5012454;28;20054;-62
2023/03/30 11:40:56;;;;;;;10.00;2.20;;;;;;;;;;5022002;28;20053;-65
2023/03/30 11:43:25;;;;;;;8.52;2.33;;;;;;;;;;5018355;28;20025;-60
2023/03/30 11:46:10;;;;;;;6.63;1.95;;;;;;;;;;5022781;28;20021;-60
2023/03/30 11:48:39;;;;;;;8.95;2.03;;;;;;;;;;5018967;28;20045;-60
2023/03/30 11:51:15;;;;;;;8.77;2.20;;;;;;;;;;5021041;28;20038;-61
2023/03/30 11:53:52;;;;;;;8.75;2.72;;;;;;;;;;5019872;28;20029;-62
2023/03/30 11:56:33;;;;;;;10.50;2.42;;;;;;;;;;5018050;28;20030;-59
2023/03/30 11:59:08;;;;;;;8.95;2.15;;;;;;;;;;5017292;28;20033;-59
2023/03/30 12:01:41;;;;;;;8.13;1.85;;;;;;;;;;5017305;28;20498;-59
2023/03/30 12:04:30;;;;;;;11.05;2.28;;;;;;;;;;5018345;28;20026;-62
2023/03/30 12:07:04;;;;;;;8.55;2.40;;;;;;;;;;5024582;28;20404;-59
2023/03/30 12:09:49;;;;;;;10.43;2.72;;;;;;;;;;5032522;28;20029;-59
2023/03/30 12:12:16;;;;;;;8.18;2.22;;;;;;;;;;5027575;28;20022;-60
2023/03/30 12:15:01;;;;;;;6.10;2.13;;;;;;;;;;5012989;28;20547;-60
2023/03/30 12:17:40;;;;;;;10.68;2.45;;;;;;;;;;5012253;28;20025;-61
2023/03/30 12:20:06;;;;;;;8.68;2.45;;;;;;;;;;4995598;28;20026;-59
2023/03/30 12:22:47;;;;;;;7.40;2.25;;;;;;;;;;5011633;28;20555;-60
2023/03/30 12:25:13;;;;;;;6.28;2.08;;;;;;;;;;5012608;28;20056;-61
2023/03/30 12:28:12;;;;;;;9.25;2.35;;;;;;;;;;5012949;28;20087;-60
2023/03/30 12:30:53;;;;;;;9.15;2.50;;;;;;;;;;4980185;28;20030;-63
2023/03/30 12:33:28;;;;;;;8.40;2.28;;;;;;;;;;5012109;28;20101;-61
2023/03/30 12:35:58;;;;;;;5.85;2.10;;;;;;;;;;5012635;28;20102;-61
2023/03/30 12:38:26;;;;;;;8.95;2.45;;;;;;;;;;5012928;28;20049;-60
2023/03/30 12:40:54;;;;;;;10.43;2.80;;;;;;;;;;5017983;28;20026;-66
2023/03/30 12:43:29;;;;;;;7.15;2.20;;;;;;;;;;5022476;28;20390;-63
2023/03/30 12:46:02;;;;;;;7.40;2.53;;;;;;;;;;5029765;28;20018;-60
2023/03/30 12:48:28;;;;;;;7.15;2.70;;;;;;;;;;5014050;28;20041;-61
2023/03/30 12:51:05;;;;;;;8.32;2.67;;;;;;;;;;5032085;28;20022;-60
2023/03/30 12:53:47;;;;;;;13.32;2.88;;;;;;;;;;5015648;28;20405;-60
2023/03/30 12:56:23;;;;;;;9.88;2.25;;;;;;;;;;5011740;28;20379;-64
2023/03/30 12:59:16;;;;;;;9.32;2.55;;;;;;;;;;4992787;28;20034;-60
2023/03/30 13:01:48;;;;;;;11.13;2.65;;;;;;;;;;5005380;28;20026;-59
2023/03/30 13:04:24;;;;;;;7.63;2.47;;;;;;;;;;5011585;28;20030;-59
2023/03/30 13:06:58;;;;;;;8.10;2.30;;;;;;;;;;5019691;28;20057;-59
2023/03/30 13:09:24;;;;;;;9.68;2.40;;;;;;;;;;5026455;28;20048;-59
2023/03/30 13:11:53;;;;;;;7.45;2.17;;;;;;;;;;5013056;28;20030;-59
2023/03/30 13:14:26;;;;;;;7.72;2.10;;;;;;;;;;5011827;28;20021;-59
2023/03/30 13:16:52;;;;;;;10.18;2.30;;;;;;;;;;5011848;28;20025;-62
2023/03/30 13:19:33;;;;;;;8.05;2.35;;;;;;;;;;5013739;28;20041;-60
2023/03/30 13:22:02;;;;;;;9.63;2.70;;;;;;;;;;5011800;28;20037;-59
2023/03/30 13:24:31;;;;;;;8.40;2.53;;;;;;;;;;5011518;28;20018;-61
2023/03/30 13:27:15;;;;;;;6.70;2.10;;;;;;;;;;5011600;28;20493;-60
2023/03/30 13:29:48;;;;;;;7.25;2.30;;;;;;;;;;4991843;28;20038;-59
2023/03/30 13:32:37;;;;;;;6.82;2.03;;;;;;;;;;4992033;28;20085;-59
2023/03/30 13:35:06;;;;;;;8.23;2.72;;;;;;;;;;4955865;28;20101;-60
2023/03/30 13:37:50;;;;;;;9.35;2.15;;;;;;;;;;4995284;28;20437;-59
2023/03/30 13:40:22;;;;;;;6.97;1.98;;;;;;;;;;4991789;28;20035;-61
2023/03/30 13:43:02;;;;;;;9.90;2.40;;;;;;;;;;4991838;28;20040;-61
2023/03/30 13:45:52;;;;;;;8.88;2.35;;;;;;;;;;4993225;28;20041;-68
2023/03/30 13:48:24;;;;;;;10.50;2.40;;;;;;;;;;5012791;28;20447;-59
2023/03/30 13:51:01;;;;;;;8.95;2.38;;;;;;;;;;5013526;28;20367;-68
2023/03/30 13:53:30;;;;;;;8.18;2.45;;;;;;;;;;5018276;28;20020;-69
2023/03/30 13:55:56;;;;;;;7.22;2.22;;;;;;;;;;5021660;28;20030;-69
2023/03/30 13:58:22;;;;;;;7.68;2.08;;;;;;;;;;5012216;28;20030;-68
2023/03/30 14:00:50;;;;;;;7.30;2.10;;;;;;;;;;5020241;28;20116;-61
2023/03/30 14:03:28;;;;;;;7.85;2.33;;;;;;;;;;5030931;28;20022;-69
2023/03/30 14:06:01;;;;;;;6.25;2.05;;;;;;;;;;5030938;28;20432;-66
2023/03/30 14:08:29;;;;;;;8.82;1.90;;;;;;;;;;5021780;28;20052;-65
2023/03/30 14:10:55;;;;;;;8.02;2.33;;;;;;;;;;5011330;28;20026;-59
2023/03/30 14:13:21;;;;;;;8.10;2.05;;;;;;;;;;5013500;28;20100;-60
2023/03/30 14:15:49;;;;;;;7.25;1.98;;;;;;;;;;5016327;28;20057;-60
2023/03/30 14:18:24;;;;;;;7.43;1.90;;;;;;;;;;5018978;28;20116;-59
2023/03/30 14:20:52;;;;;;;7.95;2.47;;;;;;;;;;5025294;28;20026;-70
2023/03/30 14:23:23;;;;;;;6.53;2.17;;;;;;;;;;5030685;28;20175;-61
2023/03/30 14:25:52;;;;;;;6.35;2.03;;;;;;;;;;5011181;28;20091;-60
2023/03/30 14:28:20;;;;;;;12.25;2.17;;;;;;;;;;5017551;28;20100;-60
2023/03/30 14:30:53;;;;;;;7.07;2.45;;;;;;;;;;5011111;28;20097;-60
2023/03/30 14:33:21;;;;;;;8.07;1.95;;;;;;;;;;5010925;28;20038;-60
2023/03/30 14:35:49;;;;;;;10.10;2.10;;;;;;;;;;5010768;28;20029;-60
2023/03/30 14:38:25;;;;;;;7.38;1.80;;;;;;;;;;5010427;28;20037;-65
2023/03/30 14:40:52;;;;;;;7.30;2.10;;;;;;;;;;5014520;28;20030;-60
2023/03/30 14:43:29;;;;;;;7.32;1.85;;;;;;;;;;5018919;28;20045;-59
2023/03/30 14:45:57;;;;;;;7.75;1.70;;;;;;;;;;4996638;28;20453;-61
2023/03/30 14:48:25;;;;;;;6.50;1.80;;;;;;;;;;5014308;28;20030;-62
2023/03/30 14:50:52;;;;;;;7.10;2.20;;;;;;;;;;5014569;28;20080;-60
2023/03/30 14:53:20;;;;;;;8.70;2.20;;;;;;;;;;5014213;28;20033;-59
2023/03/30 14:55:47;;;;;;;9.40;2.75;;;;;;;;;;5014125;28;20034;-60
2023/03/30 14:58:14;;;;;;;6.00;2.22;;;;;;;;;;5014114;28;20026;-61